createdAt,value
2023-08-09T00:00:24.479Z,100570.84
2023-08-09T00:02:52.447Z,100573.59
2023-08-09T00:05:20.429Z,100574.59
2023-08-09T00:07:48.274Z,100573.69
2023-08-09T00:10:16.258Z,100584.19
2023-08-09T00:12:45.514Z,100576.97
2023-08-09T00:15:13.498Z,100573.94
2023-08-09T00:17:41.633Z,100577.47
2023-08-09T00:20:10.478Z,100576.50
2023-08-09T00:22:38.362Z,100566.66
2023-08-09T00:25:07.548Z,100583.28
2023-08-09T00:27:35.525Z,100572.66
2023-08-09T00:30:05.564Z,100569.06
2023-08-09T00:32:34.051Z,100561.41
2023-08-09T00:35:02.023Z,100562.13
2023-08-09T00:37:29.847Z,100567.69
2023-08-09T00:39:57.927Z,100563.09
2023-08-09T00:42:27.744Z,100563.44
2023-08-09T00:44:55.639Z,100561.47
2023-08-09T00:47:25.019Z,100559.81
2023-08-09T00:49:54.077Z,100558.00
2023-08-09T00:52:22.147Z,100558.84
2023-08-09T00:54:50.310Z,100565.91
2023-08-09T00:57:18.282Z,100562.19
2023-08-09T00:59:46.366Z,100560.41
2023-08-09T01:02:14.322Z,100556.91
2023-08-09T01:04:43.876Z,100562.00
2023-08-09T01:07:17.619Z,100560.41
2023-08-09T01:09:51.909Z,100569.19
2023-08-09T01:12:26.803Z,100554.88
2023-08-09T01:14:56.187Z,100565.16
2023-08-09T01:17:29.154Z,100561.72
2023-08-09T01:20:00.416Z,100560.94
2023-08-09T01:22:32.869Z,100560.28
2023-08-09T01:25:04.671Z,100563.84
2023-08-09T01:27:33.053Z,100556.81
2023-08-09T01:30:02.229Z,100569.88
2023-08-09T01:32:31.224Z,100560.50
2023-08-09T01:35:01.524Z,100562.91
2023-08-09T01:37:33.660Z,100566.38
2023-08-09T01:40:09.385Z,100565.66
2023-08-09T01:42:38.371Z,100560.31
2023-08-09T01:45:09.103Z,100566.28
2023-08-09T01:47:37.623Z,100574.19
2023-08-09T01:50:06.550Z,100570.72
2023-08-09T01:52:34.644Z,100570.72
2023-08-09T01:55:04.134Z,100565.28
2023-08-09T01:57:32.016Z,100560.28
2023-08-09T02:00:00.250Z,100562.69
2023-08-09T02:02:28.303Z,100557.31
2023-08-09T02:04:56.951Z,100558.16
2023-08-09T02:07:24.776Z,100555.78
2023-08-09T02:09:52.656Z,100554.91
2023-08-09T02:12:21.891Z,100554.78
2023-08-09T02:14:50.448Z,100552.50
2023-08-09T02:17:18.581Z,100561.97
2023-08-09T02:19:46.462Z,100561.91
2023-08-09T02:22:14.374Z,100550.94
2023-08-09T02:24:42.249Z,100560.56
2023-08-09T02:27:10.843Z,100552.84
2023-08-09T02:29:40.182Z,100558.91
2023-08-09T02:32:08.739Z,100559.66
2023-08-09T02:34:36.636Z,100555.13
2023-08-09T02:37:05.182Z,100561.31
2023-08-09T02:39:34.117Z,100571.75
2023-08-09T02:42:01.986Z,100572.09
2023-08-09T02:44:33.745Z,100581.13
2023-08-09T02:47:04.486Z,100587.16
2023-08-09T02:49:33.931Z,100588.09
2023-08-09T02:52:01.848Z,100595.06
2023-08-09T02:54:29.955Z,100591.44
2023-08-09T02:56:57.816Z,100590.94
2023-08-09T02:59:25.629Z,100602.91
2023-08-09T03:01:53.870Z,100599.72
2023-08-09T03:04:23.312Z,100598.81
2023-08-09T03:06:51.239Z,100598.72
2023-08-09T03:09:19.510Z,100604.19
2023-08-09T03:11:47.393Z,100618.22
2023-08-09T03:14:15.636Z,100619.25
2023-08-09T03:16:43.911Z,100625.84
2023-08-09T03:19:12.681Z,100613.69
2023-08-09T03:21:42.896Z,100616.97
2023-08-09T03:24:11.260Z,100622.44
2023-08-09T03:26:41.338Z,100620.00
2023-08-09T03:29:09.172Z,100628.69
2023-08-09T03:31:37.864Z,100626.25
2023-08-09T03:34:11.497Z,100634.22
2023-08-09T03:36:39.391Z,100635.41
2023-08-09T03:39:08.755Z,100637.94
2023-08-09T03:41:36.729Z,100647.50
2023-08-09T03:44:04.894Z,100655.63
2023-08-09T03:46:33.550Z,100647.72
2023-08-09T03:49:02.436Z,100647.63
2023-08-09T03:51:31.216Z,100657.13
2023-08-09T03:53:59.300Z,100665.91
2023-08-09T03:56:28.552Z,100655.38
2023-08-09T03:58:56.440Z,100664.03
2023-08-09T04:01:24.400Z,100664.88
2023-08-09T04:03:52.370Z,100664.84
2023-08-09T04:06:20.997Z,100671.75
2023-08-09T04:08:48.945Z,100668.91
2023-08-09T04:11:16.780Z,100670.69
2023-08-09T04:13:46.133Z,100671.47
2023-08-09T04:16:14.113Z,100672.31
2023-08-09T04:18:42.614Z,100676.59
2023-08-09T04:21:10.450Z,100674.66
2023-08-09T04:23:39.724Z,100677.16
2023-08-09T04:26:07.622Z,100684.16
2023-08-09T04:28:35.485Z,100684.94
2023-08-09T04:31:05.376Z,100692.72
2023-08-09T04:33:33.654Z,100703.34
2023-08-09T04:36:01.590Z,100720.34
2023-08-09T04:38:29.963Z,100718.00
2023-08-09T04:40:58.455Z,100721.22
2023-08-09T04:43:26.304Z,100721.91
2023-08-09T04:45:54.807Z,100717.63
2023-08-09T04:48:24.849Z,100703.47
2023-08-09T04:50:55.030Z,100704.03
2023-08-09T04:53:23.020Z,100719.63
2023-08-09T04:55:51.222Z,100717.00
2023-08-09T04:58:19.402Z,100708.88
2023-08-09T05:00:47.228Z,100717.41
2023-08-09T05:03:15.148Z,100724.00
2023-08-09T05:05:44.616Z,100724.31
2023-08-09T05:08:12.461Z,100725.59
2023-08-09T05:10:40.791Z,100729.03
2023-08-09T05:13:08.759Z,100742.19
2023-08-09T05:15:36.643Z,100739.63
2023-08-09T05:18:05.809Z,100741.97
2023-08-09T05:20:33.741Z,100740.66
2023-08-09T05:23:02.917Z,100748.75
2023-08-09T05:25:31.035Z,100745.31
2023-08-09T05:27:58.925Z,100757.94
2023-08-09T05:30:26.865Z,100754.13
2023-08-09T05:32:54.837Z,100759.84
2023-08-09T05:35:22.863Z,100769.91
2023-08-09T05:37:50.744Z,100778.03
2023-08-09T05:40:20.178Z,100776.94
2023-08-09T05:42:48.016Z,100777.22
2023-08-09T05:45:15.956Z,100758.47
2023-08-09T05:47:43.867Z,100767.94
2023-08-09T05:50:11.989Z,100766.06
2023-08-09T05:52:39.875Z,100771.56
2023-08-09T05:55:09.184Z,100774.94
2023-08-09T05:57:38.376Z,100783.38
2023-08-09T06:00:12.403Z,100799.88
2023-08-09T06:02:40.378Z,100801.16
2023-08-09T06:05:09.337Z,100799.09
2023-08-09T06:07:37.278Z,100813.84
2023-08-09T06:10:05.638Z,100818.94
2023-08-09T06:12:33.567Z,100819.00
2023-08-09T06:15:02.792Z,100820.25
2023-08-09T06:17:30.722Z,100816.63
2023-08-09T06:19:58.865Z,100812.72
2023-08-09T06:22:26.857Z,100827.06
2023-08-09T06:24:54.881Z,100820.16
2023-08-09T06:27:22.721Z,100827.13
2023-08-09T06:29:50.696Z,100830.72
2023-08-09T06:32:20.993Z,100842.38
2023-08-09T06:34:50.986Z,100850.50
2023-08-09T06:37:18.817Z,100846.88
2023-08-09T06:39:46.670Z,100854.06
2023-08-09T06:42:14.929Z,100853.97
2023-08-09T06:44:45.674Z,100852.13
2023-08-09T06:47:13.641Z,100855.69
2023-08-09T06:49:42.845Z,100860.22
2023-08-09T06:52:10.884Z,100871.50
2023-08-09T06:54:38.728Z,100875.88
2023-08-09T06:57:06.901Z,100870.38
2023-08-09T06:59:35.191Z,100875.31
2023-08-09T07:02:03.369Z,100878.28
2023-08-09T07:04:31.367Z,100879.59
2023-08-09T07:07:00.837Z,100892.00
2023-08-09T07:09:28.880Z,100883.06
2023-08-09T07:11:56.721Z,100886.91
2023-08-09T07:14:24.537Z,100890.13
2023-08-09T07:16:52.348Z,100896.47
2023-08-09T07:19:20.199Z,100898.81
2023-08-09T07:21:48.511Z,100903.84
2023-08-09T07:24:17.815Z,100905.78
2023-08-09T07:26:45.760Z,100907.69
2023-08-09T07:29:13.612Z,100912.00
2023-08-09T07:31:41.700Z,100916.03
2023-08-09T07:34:09.603Z,100926.09
2023-08-09T07:36:37.496Z,100921.75
2023-08-09T07:39:05.631Z,100921.94
2023-08-09T07:41:34.919Z,100918.75
2023-08-09T07:44:02.947Z,100928.28
2023-08-09T07:46:32.416Z,100935.28
2023-08-09T07:49:01.877Z,100941.94
2023-08-09T07:51:29.756Z,100937.69
2023-08-09T07:53:57.599Z,100943.63
2023-08-09T07:56:26.098Z,100945.72
2023-08-09T07:58:55.299Z,100951.06
2023-08-09T08:01:23.714Z,100947.03
2023-08-09T08:03:51.633Z,100955.88
2023-08-09T08:06:19.606Z,100950.31
2023-08-09T08:08:47.594Z,100965.72
2023-08-09T08:11:15.504Z,100953.63
2023-08-09T08:13:43.505Z,100966.94
2023-08-09T08:16:12.915Z,100958.72
2023-08-09T08:18:40.893Z,100957.81
2023-08-09T08:21:09.995Z,100971.34
2023-08-09T08:23:38.041Z,100967.34
2023-08-09T08:26:06.396Z,100970.28
2023-08-09T08:28:34.217Z,100969.72
2023-08-09T08:31:06.095Z,100966.97
2023-08-09T08:33:35.333Z,100974.59
2023-08-09T08:36:20.796Z,100979.97
2023-08-09T08:38:51.997Z,100976.44
2023-08-09T08:41:20.004Z,100977.72
2023-08-09T08:43:49.047Z,100980.16
2023-08-09T08:46:18.099Z,100983.84
2023-08-09T08:48:50.429Z,100989.78
2023-08-09T08:51:19.638Z,100991.81
2023-08-09T08:53:48.110Z,100983.56
2023-08-09T08:56:16.623Z,100981.94
2023-08-09T08:58:44.845Z,100973.97
2023-08-09T09:01:14.130Z,100975.88
2023-08-09T09:03:42.194Z,100979.56
2023-08-09T09:06:11.992Z,100989.50
2023-08-09T09:08:43.001Z,100988.44
2023-08-09T09:11:16.814Z,100993.69
2023-08-09T09:13:44.754Z,100994.66
2023-08-09T09:16:13.397Z,100997.22
2023-08-09T09:18:46.181Z,100987.91
2023-08-09T09:21:16.077Z,100998.59
2023-08-09T09:23:44.123Z,100986.44
2023-08-09T09:26:13.523Z,100989.13
2023-08-09T09:28:42.525Z,100987.72
2023-08-09T09:31:11.642Z,100990.00
2023-08-09T09:33:40.997Z,101001.03
2023-08-09T09:36:13.068Z,100992.25
2023-08-09T09:38:42.848Z,100998.59
2023-08-09T09:41:11.292Z,101002.28
2023-08-09T09:43:42.713Z,100998.81
2023-08-09T09:46:34.166Z,100999.31
2023-08-09T09:49:06.436Z,101001.78
2023-08-09T09:51:36.705Z,101006.34
2023-08-09T09:54:07.825Z,101000.75
2023-08-09T09:56:36.893Z,101007.03
2023-08-09T09:59:05.533Z,101019.47
2023-08-09T10:01:36.522Z,101011.88
2023-08-09T10:04:08.803Z,101022.25
2023-08-09T10:06:43.456Z,101014.75
2023-08-09T10:09:14.423Z,101016.34
2023-08-09T10:11:45.456Z,101010.66
2023-08-09T10:14:16.334Z,101015.38
2023-08-09T10:16:46.550Z,101020.69
2023-08-09T10:19:19.352Z,101021.13
2023-08-09T10:21:47.618Z,101031.09
2023-08-09T10:24:19.731Z,101026.47
2023-08-09T10:26:50.639Z,101036.72
2023-08-09T10:29:22.502Z,101029.63
2023-08-09T10:31:54.319Z,101037.66
2023-08-09T10:34:24.150Z,101044.25
2023-08-09T10:36:55.593Z,101052.38
2023-08-09T10:39:25.610Z,101049.47
2023-08-09T10:42:03.346Z,101051.63
2023-08-09T10:44:42.819Z,101042.53
2023-08-09T10:47:13.888Z,101041.81
2023-08-09T10:50:01.395Z,101035.34
2023-08-09T10:52:37.354Z,101042.19
2023-08-09T10:55:40.007Z,101039.50
2023-08-09T10:58:16.077Z,101041.13
2023-08-09T11:00:44.671Z,101042.03
2023-08-09T11:03:13.584Z,101038.25
2023-08-09T11:05:41.670Z,101035.78
2023-08-09T11:08:17.473Z,101037.56
2023-08-09T11:10:47.520Z,101037.75
2023-08-09T11:13:17.185Z,101037.09
2023-08-09T11:15:46.519Z,101048.66
2023-08-09T11:18:14.574Z,101036.91
2023-08-09T11:20:42.596Z,101039.28
2023-08-09T11:23:12.750Z,101041.22
2023-08-09T11:25:41.302Z,101052.22
2023-08-09T11:28:15.783Z,101051.97
2023-08-09T11:30:44.229Z,101058.75
2023-08-09T11:33:12.999Z,101058.09
2023-08-09T11:35:45.150Z,101053.06
2023-08-09T11:38:15.165Z,101067.31
2023-08-09T11:40:44.816Z,101065.50
2023-08-09T11:43:16.504Z,101062.38
2023-08-09T11:45:51.233Z,101057.47
2023-08-09T11:48:31.390Z,101057.81
2023-08-09T11:51:03.537Z,101058.00
2023-08-09T11:53:31.570Z,101069.28
2023-08-09T11:56:02.884Z,101065.91
2023-08-09T11:58:35.030Z,101061.81
2023-08-09T12:01:14.069Z,101062.38
2023-08-09T12:03:42.723Z,101071.84
2023-08-09T12:06:11.345Z,101069.56
2023-08-09T12:08:39.885Z,101069.06
2023-08-09T12:11:07.975Z,101068.22
2023-08-09T12:13:37.341Z,101071.88
2023-08-09T12:16:08.095Z,101080.84
2023-08-09T12:18:37.578Z,101081.84
2023-08-09T12:21:08.106Z,101072.09
2023-08-09T12:23:39.490Z,101083.38
2023-08-09T12:26:08.892Z,101087.31
2023-08-09T12:28:40.209Z,101082.00
2023-08-09T12:31:09.765Z,101081.22
2023-08-09T12:33:37.650Z,101085.03
2023-08-09T12:36:05.868Z,101079.28
2023-08-09T12:38:33.778Z,101076.91
2023-08-09T12:41:01.712Z,101087.44
2023-08-09T12:43:29.592Z,101085.72
2023-08-09T12:46:00.734Z,101083.13
2023-08-09T12:48:28.716Z,101085.50
2023-08-09T12:50:56.616Z,101087.47
2023-08-09T12:53:24.534Z,101092.66
2023-08-09T12:55:52.493Z,101095.56
2023-08-09T12:58:20.518Z,101098.06
2023-08-09T13:00:48.398Z,101091.97
2023-08-09T13:03:17.870Z,101094.28
2023-08-09T13:05:45.857Z,101099.19
2023-08-09T13:08:14.053Z,101104.59
2023-08-09T13:10:44.739Z,101105.88
2023-08-09T13:13:12.570Z,101111.72
2023-08-09T13:15:40.589Z,101113.03
2023-08-09T13:18:08.578Z,101106.66
2023-08-09T13:20:37.965Z,101109.78
2023-08-09T13:23:08.523Z,101105.94
2023-08-09T13:25:36.488Z,101100.63
2023-08-09T13:28:05.427Z,101101.06
2023-08-09T13:30:34.010Z,101103.34
2023-08-09T13:33:01.919Z,101095.78
2023-08-09T13:35:30.495Z,101105.72
2023-08-09T13:37:59.724Z,101087.72
2023-08-09T13:40:27.592Z,101096.69
2023-08-09T13:42:54.648Z,101098.66
2023-08-09T13:45:22.506Z,101104.50
2023-08-09T13:47:50.453Z,101097.59
2023-08-09T13:50:18.594Z,101089.22
2023-08-09T13:52:46.512Z,101087.72
2023-08-09T13:55:15.766Z,101089.56
2023-08-09T13:57:43.614Z,101097.22
2023-08-09T14:00:15.527Z,101080.97
2023-08-09T14:02:43.651Z,101098.63
2023-08-09T14:05:12.361Z,101090.13
2023-08-09T14:07:40.378Z,101087.56
2023-08-09T14:10:09.301Z,101092.53
2023-08-09T14:12:39.577Z,101086.16
2023-08-09T14:15:09.318Z,101093.81
2023-08-09T14:17:37.247Z,101087.31
2023-08-09T14:20:06.953Z,101093.00
2023-08-09T14:22:35.090Z,101092.13
2023-08-09T14:25:03.087Z,101090.81
2023-08-09T14:27:31.296Z,101090.78
2023-08-09T14:30:00.530Z,101091.47
2023-08-09T14:32:28.864Z,101089.84
2023-08-09T14:34:56.727Z,101093.22
2023-08-09T14:37:24.670Z,101093.03
2023-08-09T14:39:52.750Z,101098.28
2023-08-09T14:42:20.641Z,101094.16
2023-08-09T14:44:48.873Z,101093.59
2023-08-09T14:47:18.130Z,101092.66
2023-08-09T14:49:47.086Z,101096.84
2023-08-09T14:52:15.024Z,101101.03
2023-08-09T14:54:42.946Z,101098.13
2023-08-09T14:57:10.845Z,101090.53
2023-08-09T14:59:38.795Z,101093.50
2023-08-09T15:02:06.665Z,101096.53
2023-08-09T15:04:38.077Z,101094.03
2023-08-09T15:07:06.186Z,101097.56
2023-08-09T15:09:34.704Z,101089.13
2023-08-09T15:12:02.680Z,101103.34
2023-08-09T15:14:30.632Z,101099.59
2023-08-09T15:17:03.427Z,101096.59
2023-08-09T15:19:39.238Z,101091.34
2023-08-09T15:22:07.182Z,101092.16
2023-08-09T15:24:35.140Z,101093.91
2023-08-09T15:27:03.455Z,101101.66
2023-08-09T15:29:31.541Z,101104.63
2023-08-09T15:31:59.768Z,101109.78
2023-08-09T15:34:27.669Z,101104.47
2023-08-09T15:36:56.891Z,101096.22
2023-08-09T15:39:24.770Z,101104.06
2023-08-09T15:41:55.454Z,101099.50
2023-08-09T15:44:28.327Z,101105.13
2023-08-09T15:46:56.388Z,101096.50
2023-08-09T15:49:24.384Z,101095.03
2023-08-09T15:51:52.262Z,101093.16
2023-08-09T15:54:21.465Z,101095.03
2023-08-09T15:56:49.342Z,101092.28
2023-08-09T15:59:17.324Z,101097.09
2023-08-09T16:01:46.411Z,101094.09
2023-08-09T16:04:14.411Z,101102.28
2023-08-09T16:06:42.481Z,101097.25
2023-08-09T16:09:15.634Z,101107.09
2023-08-09T16:11:46.863Z,101092.72
2023-08-09T16:14:14.936Z,101100.53
2023-08-09T16:16:42.917Z,101102.13
2023-08-09T16:19:10.830Z,101103.41
2023-08-09T16:21:38.783Z,101105.00
2023-08-09T16:24:06.993Z,101102.75
2023-08-09T16:26:36.991Z,101106.00
2023-08-09T16:29:07.096Z,101103.47
2023-08-09T16:31:35.620Z,101104.03
2023-08-09T16:34:03.568Z,101108.53
2023-08-09T16:36:31.513Z,101109.19
2023-08-09T16:38:59.486Z,101100.91
2023-08-09T16:41:27.348Z,101103.38
2023-08-09T16:43:56.094Z,101111.22
2023-08-09T16:46:25.534Z,101111.03
2023-08-09T16:48:54.157Z,101113.72
2023-08-09T16:51:22.190Z,101114.06
2023-08-09T16:53:50.242Z,101116.47
2023-08-09T16:56:18.147Z,101108.44
2023-08-09T16:58:46.044Z,101112.75
2023-08-09T17:01:18.066Z,101116.28
2023-08-09T17:03:48.025Z,101118.09
2023-08-09T17:06:16.503Z,101114.97
2023-08-09T17:08:44.740Z,101116.28
2023-08-09T17:11:14.228Z,101120.00
2023-08-09T17:13:42.156Z,101119.44
2023-08-09T17:16:11.616Z,101125.69
2023-08-09T17:18:40.139Z,101119.38
2023-08-09T17:21:09.829Z,101120.59
2023-08-09T17:23:39.831Z,101123.59
2023-08-09T17:26:08.249Z,101121.72
2023-08-09T17:28:36.421Z,101118.81
2023-08-09T17:31:04.367Z,101117.69
2023-08-09T17:33:33.400Z,101122.91
2023-08-09T17:36:03.876Z,101118.75
2023-08-09T17:38:33.484Z,101124.56
2023-08-09T17:41:01.385Z,101126.59
2023-08-09T17:43:30.586Z,101124.75
2023-08-09T17:45:58.541Z,101132.19
2023-08-09T17:48:26.768Z,101120.78
2023-08-09T17:50:54.692Z,101134.75
2023-08-09T17:53:22.479Z,101123.22
2023-08-09T17:55:51.705Z,101129.97
2023-08-09T17:58:19.817Z,101129.78
2023-08-09T18:00:48.186Z,101138.13
2023-08-09T18:03:16.090Z,101133.34
2023-08-09T18:05:44.160Z,101145.41
2023-08-09T18:08:12.138Z,101143.25
2023-08-09T18:10:40.871Z,101158.09
2023-08-09T18:13:10.143Z,101153.91
2023-08-09T18:15:38.501Z,101152.00
2023-08-09T18:18:06.755Z,101161.28
2023-08-09T18:20:34.781Z,101161.44
2023-08-09T18:23:04.027Z,101161.97
2023-08-09T18:25:32.069Z,101164.22
2023-08-09T18:28:00.167Z,101167.81
2023-08-09T18:30:29.546Z,101173.31
2023-08-09T18:32:57.603Z,101173.13
2023-08-09T18:35:25.529Z,101172.03
2023-08-09T18:37:53.914Z,101176.31
2023-08-09T18:40:22.622Z,101176.72
2023-08-09T18:42:50.531Z,101169.22
2023-08-09T18:45:18.566Z,101176.47
2023-08-09T18:47:47.835Z,101181.81
2023-08-09T18:50:15.782Z,101186.22
2023-08-09T18:52:46.007Z,101179.22
2023-08-09T18:55:17.518Z,101178.94
2023-08-09T18:57:45.625Z,101185.94
2023-08-09T19:00:15.915Z,101190.88
2023-08-09T19:02:46.093Z,101193.88
2023-08-09T19:05:15.817Z,101187.63
2023-08-09T19:07:44.296Z,101198.25
2023-08-09T19:10:12.341Z,101204.81
2023-08-09T19:12:40.319Z,101198.78
2023-08-09T19:15:09.545Z,101208.16
2023-08-09T19:17:37.527Z,101202.88
2023-08-09T19:20:06.228Z,101208.50
2023-08-09T19:22:36.006Z,101215.00
2023-08-09T19:25:04.759Z,101218.53
2023-08-09T19:27:33.083Z,101226.19
2023-08-09T19:30:01.578Z,101224.34
2023-08-09T19:32:29.574Z,101230.91
2023-08-09T19:34:57.442Z,101235.53
2023-08-09T19:37:25.571Z,101236.53
2023-08-09T19:39:54.935Z,101235.00
2023-08-09T19:42:22.976Z,101241.03
2023-08-09T19:44:50.832Z,101234.72
2023-08-09T19:47:18.662Z,101228.78
2023-08-09T19:49:47.205Z,101241.91
2023-08-09T19:52:15.255Z,101244.78
2023-08-09T19:54:43.169Z,101249.53
2023-08-09T19:57:13.315Z,101244.00
2023-08-09T19:59:41.197Z,101246.00
2023-08-09T20:02:09.213Z,101255.03
2023-08-09T20:04:38.897Z,101263.94
2023-08-09T20:07:07.328Z,101256.78
2023-08-09T20:09:36.089Z,101262.00
2023-08-09T20:12:04.802Z,101258.91
2023-08-09T20:14:34.256Z,101260.16
2023-08-09T20:17:03.004Z,101268.41
2023-08-09T20:19:32.781Z,101266.13
2023-08-09T20:22:00.655Z,101259.28
2023-08-09T20:24:41.083Z,101260.88
2023-08-09T20:27:09.843Z,101256.16
2023-08-09T20:29:39.911Z,101265.41
2023-08-09T20:32:08.577Z,101257.66
2023-08-09T20:34:37.182Z,101260.91
2023-08-09T20:37:05.933Z,101263.88
2023-08-09T20:39:34.181Z,101268.13
2023-08-09T20:42:02.507Z,101269.44
2023-08-09T20:44:36.126Z,101274.34
2023-08-09T20:47:07.172Z,101271.31
2023-08-09T20:49:35.715Z,101277.44
2023-08-09T20:52:04.948Z,101280.38
2023-08-09T20:54:33.048Z,101278.91
2023-08-09T20:57:01.116Z,101279.94
2023-08-09T20:59:33.954Z,101284.34
2023-08-09T21:02:02.278Z,101288.03
2023-08-09T21:04:32.037Z,101291.78
2023-08-09T21:07:00.112Z,101299.00
2023-08-09T21:09:28.651Z,101305.16
2023-08-09T21:11:56.566Z,101296.41
2023-08-09T21:14:25.640Z,101303.41
2023-08-09T21:16:53.710Z,101301.84
2023-08-09T21:19:21.575Z,101303.78
2023-08-09T21:21:50.869Z,101306.69
2023-08-09T21:26:52.007Z,101299.91
2023-08-09T21:29:22.230Z,101306.88
2023-08-09T21:31:50.618Z,101296.88
2023-08-09T21:34:18.810Z,101291.19
2023-08-09T21:36:46.826Z,101302.06
2023-08-09T21:39:16.094Z,101301.69
2023-08-09T21:41:44.049Z,101303.97
2023-08-09T21:44:11.988Z,101308.28
2023-08-09T21:46:39.925Z,101312.66
2023-08-09T21:49:08.165Z,101315.44
2023-08-09T21:51:36.076Z,101324.47
2023-08-09T21:54:04.129Z,101322.00
2023-08-09T21:56:33.432Z,101325.78
2023-08-09T21:59:01.394Z,101332.28
2023-08-09T22:01:29.781Z,101337.00
2023-08-09T22:03:57.604Z,101329.50
2023-08-09T22:06:25.542Z,101325.13
2023-08-09T22:08:53.447Z,101336.56
2023-08-09T22:11:21.612Z,101331.31
2023-08-09T22:13:51.127Z,101336.81
2023-08-09T22:16:19.115Z,101336.63
2023-08-09T22:18:47.139Z,101342.94
2023-08-09T22:21:14.999Z,101338.66
2023-08-09T22:23:43.359Z,101341.63
2023-08-09T22:26:11.251Z,101339.34
2023-08-09T22:28:39.142Z,101342.09
2023-08-09T22:31:08.645Z,101341.16
2023-08-09T22:33:36.595Z,101335.88
2023-08-09T22:36:04.658Z,101335.19
2023-08-09T22:38:32.537Z,101343.31
2023-08-09T22:41:00.364Z,101340.63
2023-08-09T22:43:28.553Z,101353.78
2023-08-09T22:45:58.596Z,101348.50
2023-08-09T22:48:27.887Z,101348.56
2023-08-09T22:50:56.068Z,101351.31
2023-08-09T22:53:25.688Z,101352.16
2023-08-09T22:55:53.984Z,101355.19
2023-08-09T22:58:22.795Z,101356.97
2023-08-09T23:00:50.757Z,101359.13
2023-08-09T23:03:20.565Z,101355.06
2023-08-09T23:05:50.509Z,101351.66
2023-08-09T23:08:19.472Z,101356.03
2023-08-09T23:10:47.310Z,101357.09
2023-08-09T23:13:15.175Z,101354.53
2023-08-09T23:15:45.609Z,101354.47
2023-08-09T23:18:14.530Z,101349.34
2023-08-09T23:20:42.648Z,101356.47
2023-08-09T23:23:12.562Z,101359.19
2023-08-09T23:25:40.422Z,101366.25
2023-08-09T23:28:08.319Z,101375.97
2023-08-09T23:30:36.427Z,101370.88
2023-08-09T23:33:06.283Z,101378.19
2023-08-09T23:35:34.593Z,101373.94
2023-08-09T23:38:02.475Z,101381.13
2023-08-09T23:40:31.769Z,101376.75
2023-08-09T23:42:59.893Z,101377.13
2023-08-09T23:45:27.934Z,101379.91
2023-08-09T23:47:55.987Z,101387.59
2023-08-09T23:50:24.373Z,101388.41
2023-08-09T23:52:52.312Z,101381.38
2023-08-09T23:55:20.244Z,101385.84
2023-08-09T23:57:49.570Z,101379.00
